White Pine, Pennsylvania
Current Conditions -  °F | °C
As of 1:54 PM on Saturday 20 Dec 2014 (Local Time) from KIPT Reporting Station
Overcast Overcast  
Wind Chill: 33°   Ceiling: 3000
Heat Index: 33°   Visibility: 10mi
Dew Point: 20°   Wind: 3mph
Humidity: 59%   Direction: 270°W
Pressure: 30.23"   Gusts: NA
Location:  41.4223°N, 76.9976°W
Report Text: KIPT 201854Z 27003KT 10SM OVC030 01/M07 A3023 RMK AO2 SLP244 T00061067
Loading
Personal Weather Stations






























Interactive Weather Map New forecast layout! Learn more

10-Day Weather Forecast

Advertisements
Track Severe Weather on mobile